This is the latest recevied weather packets stored in our database for station/object LZ3DJ-10. If no packets are shown the sender has not sent any weather packets the latest 10 day(s).
| Time | Temp. | Humidity | Pressure | Rain* | Wind** | Luminosity | Snow |
|---|---|---|---|---|---|---|---|
| 1787600706 | 21.67° C | 79% | 1014.2 hPa | 0 mm | 0 m/s | - | - |
| 1787599806 | 21.11° C | 82% | 1014.4 hPa | 0 mm | 0 m/s | - | - |
| 1787598905 | 21.67° C | 81% | 1014.3 hPa | 0 mm | 0 m/s | - | - |
| 1787598006 | 22.22° C | 80% | 1014.2 hPa | 0 mm | 0 m/s | - | - |
| 1787597105 | 21.67° C | 79% | 1014.2 hPa | 0 mm | 0 m/s | - | - |
| 1787596205 | 22.22° C | 78% | 1014 hPa | 0 mm | 0 m/s | - | - |
| 1787595306 | 22.78° C | 77% | 1014 hPa | 0 mm | 0 m/s | - | - |
| 1787594406 | 22.22° C | 76% | 1013.7 hPa | 0 mm | 0 m/s | - | - |
| 1787593506 | 22.78° C | 77% | 1013.4 hPa | 0 mm | 0 m/s | - | - |
| 1787592606 | 22.22° C | 79% | 1013.4 hPa | 0 mm | 0 m/s | - | - |
| 1787591706 | 23.33° C | 77% | 1013.3 hPa | 0 mm | 0 m/s | - | - |
| 1787590806 | 23.89° C | 73% | 1013.2 hPa | 0 mm | 0.45 m/s, 146° | - | - |
| 1787589906 | 23.89° C | 73% | 1013 hPa | 0 mm | 0 m/s | - | - |
| 1787589006 | 25° C | 73% | 1012.9 hPa | 0 mm | 0 m/s | - | - |
| 1787588106 | 25° C | 73% | 1013 hPa | 0 mm | 0 m/s | - | - |
| 1787587206 | 23.89° C | 74% | 1013.3 hPa | 0.76 mm | 0.89 m/s, 141° | - | - |
| 1787586305 | 24.44° C | 76% | 1013.2 hPa | 3.3 mm | 0 m/s | - | - |
| 1787585405 | 24.44° C | 71% | 1013.5 hPa | 0 mm | 0.45 m/s, 127° | - | - |
| 1787584506 | 24.44° C | 74% | 1013.8 hPa | 0 mm | 0 m/s | - | - |
| 1787583605 | 25° C | 73% | 1013.1 hPa | 0 mm | 0 m/s | - | - |
| 1787582706 | 26.11° C | 66% | 1012.6 hPa | 0 mm | 0.89 m/s, 152° | - | - |
| 1787581805 | 25.56° C | 70% | 1012.5 hPa | 0 mm | 0.89 m/s, 145° | - | - |
| 1787580906 | 23.33° C | 78% | 1013.5 hPa | 0 mm | 1.34 m/s, 146° | - | - |
| 1787580005 | 22.78° C | 82% | 1013.4 hPa | 0 mm | 0.45 m/s, 157° | - | - |
| 1787579106 | 20° C | 89% | 1014.3 hPa | 9.65 mm | 0 m/s | - | - |
* Rain latest hour (hover to see other rain measurements)
** Current wind speed in m/s (hover to see current wind gust speed)